Time;durP1;ratioP1;P1;durP2;ratioP2;P2;SDS_P1;SDS_P2;PMS_P1;PMS_P2;Temp;Humidity;BMP_temperature;BMP_pressure;BME280_temperature;BME280_humidity;BME280_pressure;Samples;Min_cycle;Max_cycle;Signal;HPM_P1;HPM_P2
2022/08/12 00:43:44;;;;;;;;;15.00;14.80;;;;;26.89;30.52;99356.38;5069921;28;8858;-68
2022/08/12 00:46:35;;;;;;;;;15.80;15.20;;;;;26.80;30.98;99363.22;5090671;28;8839;-69
2022/08/12 00:49:04;;;;;;;;;19.00;17.80;;;;;26.66;31.21;99356.19;5090394;28;8859;-69
2022/08/12 00:54:16;;;;;;;;;17.00;16.40;;;;;26.75;31.75;99360.00;5107071;28;8868;-69
2022/08/12 00:56:49;;;;;;;;;19.40;18.80;;;;;26.69;31.98;99357.78;5089844;28;8850;-68
2022/08/12 00:59:19;;;;;;;;;16.20;16.20;;;;;26.35;32.53;99360.09;5107432;28;8850;-68
2022/08/12 01:01:50;;;;;;;;;18.40;15.60;;;;;26.43;32.30;99355.09;5107352;28;8975;-69
2022/08/12 01:13:03;;;;;;;;;16.40;16.40;;;;;26.09;31.83;99365.44;5090354;28;8846;-68
2022/08/12 01:15:49;;;;;;;;;17.60;17.60;;;;;26.01;32.35;99367.75;5041104;28;8854;-68
2022/08/12 01:18:20;;;;;;;;;18.40;16.20;;;;;26.04;32.52;99362.19;5086724;28;9011;-68
2022/08/12 01:21:00;;;;;;;;;16.80;15.80;;;;;26.19;32.48;99357.63;5086541;28;8842;-67
2022/08/12 01:23:51;;;;;;;;;15.80;15.80;;;;;26.21;32.50;99359.22;5083244;28;8891;-67
2022/08/12 01:26:23;;;;;;;;;14.20;14.20;;;;;26.05;32.00;99359.44;5088090;28;8898;-69
2022/08/12 01:28:56;;;;;;;;;12.40;12.00;;;;;25.96;31.71;99365.38;5089035;28;8859;-68
2022/08/12 01:31:28;;;;;;;;;15.20;15.20;;;;;25.95;31.38;99357.47;5088792;28;9685;-69
2022/08/12 01:34:03;;;;;;;;;13.60;12.40;;;;;25.87;31.41;99360.63;5089278;28;9589;-69
2022/08/12 01:36:57;;;;;;;;;11.00;8.60;;;;;25.82;31.82;99354.72;5089221;28;8843;-68
2022/08/12 01:39:30;;;;;;;;;14.80;13.20;;;;;25.95;31.87;99362.81;5076212;28;8899;-68
2022/08/12 01:42:05;;;;;;;;;17.20;13.40;;;;;26.02;31.64;99353.44;5085559;28;8858;-71
2022/08/12 01:44:35;;;;;;;;;16.60;16.00;;;;;25.97;31.89;99352.88;5088342;28;8836;-69
2022/08/12 01:47:17;;;;;;;;;19.00;15.80;;;;;26.14;31.93;99347.25;5087692;28;8878;-69
2022/08/12 01:50:04;;;;;;;;;14.00;13.80;;;;;26.12;31.68;99345.63;5087095;28;8936;-68
2022/08/12 01:52:44;;;;;;;;;16.20;15.60;;;;;25.93;31.44;99343.38;5079751;28;8842;-68
2022/08/12 01:55:15;;;;;;;;;12.60;12.60;;;;;25.85;32.08;99339.34;5068478;28;8843;-68
2022/08/12 01:57:50;;;;;;;;;15.20;13.80;;;;;25.95;31.83;99334.28;5066339;28;8854;-68
2022/08/12 02:00:38;;;;;;;;;13.20;13.00;;;;;25.91;32.22;99327.41;5068347;28;8927;-69
2022/08/12 02:12:39;;;;;;;;;15.80;15.80;;;;;25.94;32.75;99321.88;5066054;28;8846;-69
2022/08/12 02:15:21;;;;;;;;;14.60;14.60;;;;;25.73;33.04;99318.81;5049078;28;8878;-69
2022/08/12 02:18:03;;;;;;;;;14.80;14.80;;;;;25.85;32.59;99314.47;5087986;28;8839;-69
2022/08/12 02:20:38;;;;;;;;;17.20;17.20;;;;;25.80;33.08;99306.78;5086784;28;8864;-68
2022/08/12 02:23:25;;;;;;;;;15.80;14.00;;;;;25.81;32.84;99318.31;5088028;28;8855;-68
2022/08/12 02:25:58;;;;;;;;;15.40;15.40;;;;;25.80;33.22;99309.44;5087723;28;8839;-67
2022/08/12 02:28:27;;;;;;;;;16.20;16.00;;;;;25.77;33.25;99306.13;5087625;28;8879;-68
2022/08/12 02:31:03;;;;;;;;;13.80;13.60;;;;;25.90;33.38;99303.44;5068743;28;8846;-68
2022/08/12 02:33:33;;;;;;;;;14.80;14.80;;;;;25.81;33.67;99312.97;5067742;28;8876;-68
2022/08/12 02:36:03;;;;;;;;;13.60;13.60;;;;;25.85;33.62;99304.63;5082971;28;8850;-68
2022/08/12 02:38:33;;;;;;;;;14.40;14.00;;;;;25.84;33.54;99302.94;4992772;28;8872;-69
2022/08/12 02:41:05;;;;;;;;;18.60;17.00;;;;;25.82;33.66;99303.97;5025070;28;9014;-68
2022/08/12 02:43:37;;;;;;;;;16.60;16.60;;;;;25.78;33.22;99299.78;5009444;28;8864;-69
2022/08/12 02:46:12;;;;;;;;;16.40;16.20;;;;;25.79;33.60;99304.19;5052317;28;8926;-66
2022/08/12 02:48:50;;;;;;;;;16.80;16.40;;;;;25.80;33.37;99295.22;5046107;28;8996;-68
2022/08/12 02:51:23;;;;;;;;;14.60;14.60;;;;;25.74;33.41;99298.28;5040416;28;8888;-68
2022/08/12 02:53:52;;;;;;;;;17.50;17.50;;;;;25.70;33.66;99303.00;5025441;28;8918;-70
2022/08/12 02:56:36;;;;;;;;;18.20;16.80;;;;;25.68;33.67;99303.09;5025814;28;8974;-68
2022/08/12 02:59:10;;;;;;;;;13.60;13.60;;;;;25.71;33.64;99298.50;5029333;28;8999;-68
2022/08/12 03:01:46;;;;;;;;;15.75;15.75;;;;;25.82;34.21;99299.50;5029459;28;8856;-69
2022/08/12 03:04:25;;;;;;;;;17.00;17.00;;;;;25.87;34.05;99297.34;5036332;28;8842;-67
2022/08/12 03:07:04;;;;;;;;;17.50;15.75;;;;;25.73;34.52;99294.78;5049070;28;8830;-71
2022/08/12 03:09:40;;;;;;;;;14.25;14.00;;;;;25.69;34.21;99295.94;5066901;28;8883;-71
2022/08/12 03:12:31;;;;;;;;;16.20;15.20;;;;;25.54;34.18;99295.16;5075933;28;8878;-69
2022/08/12 03:15:06;;;;;;;;;14.60;14.20;;;;;25.42;33.94;99298.63;5068767;28;8869;-67
2022/08/12 03:17:42;;;;;;;;;15.40;14.40;;;;;25.22;33.91;99299.91;5071078;28;8866;-70
2022/08/12 03:20:15;;;;;;;;;19.00;17.75;;;;;25.05;34.12;99309.00;5070645;28;9777;-68
2022/08/12 03:22:45;;;;;;;;;26.00;26.00;;;;;25.03;34.12;99297.59;5070951;28;8865;-68
2022/08/12 03:25:16;;;;;;;;;14.00;12.80;;;;;25.04;33.79;99296.63;5035370;28;8870;-66
2022/08/12 03:27:50;;;;;;;;;15.60;14.80;;;;;25.01;33.79;99295.00;5070957;28;8842;-67
2022/08/12 03:30:20;;;;;;;;;13.00;12.80;;;;;25.02;33.69;99298.53;5102725;28;8874;-69
2022/08/12 03:32:52;;;;;;;;;16.50;16.00;;;;;25.09;33.90;99289.19;5086574;28;8873;-67
2022/08/12 03:35:25;;;;;;;;;17.50;16.75;;;;;25.08;33.91;99296.34;5070705;28;8877;-68
2022/08/12 03:38:14;;;;;;;;;17.50;14.50;;;;;25.10;33.94;99299.75;5068904;28;8838;-69
2022/08/12 04:00:40;;;;;;;;;16.40;15.40;;;;;25.25;33.54;99289.91;5073439;28;8846;-68
2022/08/12 04:03:50;;;;;;;;;79.50;71.75;;;;;25.24;33.65;99296.22;5051084;28;8862;-69
2022/08/12 04:06:00;;;;;;;;;23.25;23.25;;;;;25.30;33.45;99297.63;5069901;28;10682;-69
2022/08/12 04:08:29;;;;;;;;;16.25;15.25;;;;;25.34;33.34;99304.47;5069225;28;8858;-68
2022/08/12 04:13:47;;;;;;;;;18.75;17.00;;;;;25.44;33.77;99299.38;5069656;28;8947;-68
2022/08/12 04:16:17;;;;;;;;;16.00;16.00;;;;;25.52;33.47;99294.41;5068398;28;8885;-68
2022/08/12 04:18:46;;;;;;;;;19.50;17.00;;;;;25.61;33.50;99304.44;5069972;28;8838;-68
2022/08/12 04:21:16;;;;;;;;;21.75;20.75;;;;;25.74;32.98;99299.16;5069935;28;8842;-68
2022/08/12 04:23:45;;;;;;;;;57.25;47.50;;;;;25.67;32.50;99301.38;5051059;28;8961;-68
2022/08/12 04:26:16;;;;;;;;;27.00;26.75;;;;;25.68;32.82;99305.75;5069348;28;8919;-70
2022/08/12 04:28:44;;;;;;;;;19.75;19.00;;;;;25.87;33.16;99305.38;5069613;28;8866;-69
2022/08/12 04:31:13;;;;;;;;;23.75;22.25;;;;;25.96;33.08;99306.59;5069431;28;8873;-68
2022/08/12 04:33:43;;;;;;;;;27.75;26.25;;;;;26.02;33.24;99305.34;5069526;28;8850;-69
2022/08/12 04:36:11;;;;;;;;;31.00;28.25;;;;;26.10;32.63;99308.31;5069308;28;8860;-70
2022/08/12 04:38:42;;;;;;;;;26.25;24.25;;;;;26.22;33.08;99303.97;5075669;28;8863;-68
2022/08/12 04:41:12;;;;;;;;;22.40;19.20;;;;;26.28;32.57;99300.03;5068216;28;8858;-70
2022/08/12 04:43:40;;;;;;;;;22.75;19.50;;;;;26.32;32.21;99313.06;5067864;28;8874;-69
2022/08/12 04:46:27;;;;;;;;;16.75;16.00;;;;;26.45;32.42;99307.72;5070962;28;8842;-69
2022/08/12 04:49:02;;;;;;;;;19.20;18.60;;;;;26.56;31.81;99313.16;5067666;28;8838;-68
2022/08/12 04:51:32;;;;;;;;;18.20;17.20;;;;;26.65;31.82;99311.66;5067598;28;8850;-68
2022/08/12 04:54:03;;;;;;;;;18.75;18.50;;;;;26.76;31.43;99311.75;5068103;28;8939;-69
2022/08/12 04:56:32;;;;;;;;;22.00;20.25;;;;;26.82;31.31;99299.75;5069504;28;8950;-69
2022/08/12 04:59:04;;;;;;;;;18.50;15.75;;;;;26.94;31.08;99309.59;5039676;28;9544;-69
2022/08/12 05:01:35;;;;;;;;;16.75;16.25;;;;;26.58;31.20;99311.22;5069434;28;8861;-71
2022/08/12 05:04:05;;;;;;;;;16.75;15.25;;;;;26.49;31.50;99306.53;5068707;28;8858;-69
2022/08/12 05:06:33;;;;;;;;;19.50;19.25;;;;;26.51;31.28;99312.63;5069307;28;8886;-67
2022/08/12 05:09:03;;;;;;;;;25.75;24.25;;;;;26.74;31.56;99316.38;5067737;28;8838;-69
2022/08/12 05:11:41;;;;;;;;;30.00;27.50;;;;;26.85;31.54;99312.94;5079922;28;8856;-68
2022/08/12 05:14:22;;;;;;;;;40.25;35.75;;;;;26.98;31.26;99318.25;5088767;28;8859;-69
2022/08/12 05:16:52;;;;;;;;;42.25;35.00;;;;;26.64;31.19;99318.00;5071811;28;8872;-71
2022/08/12 05:19:20;;;;;;;;;35.75;33.25;;;;;26.79;31.24;99318.72;5088119;28;8927;-69
2022/08/12 05:21:50;;;;;;;;;30.00;29.00;;;;;26.81;31.08;99317.63;5089200;28;8852;-68
2022/08/12 05:24:20;;;;;;;;;38.00;33.75;;;;;26.70;30.92;99316.72;5073802;28;8961;-71
2022/08/12 05:26:48;;;;;;;;;33.00;31.75;;;;;26.24;31.51;99310.06;5066685;28;8969;-69
2022/08/12 05:29:17;;;;;;;;;34.25;31.25;;;;;26.31;31.73;99307.81;5067961;28;8897;-68
2022/08/12 05:32:07;;;;;;;;;36.50;32.25;;;;;25.95;31.85;99317.38;5080118;28;8875;-69
2022/08/12 05:34:36;;;;;;;;;28.50;25.75;;;;;25.61;32.52;99317.81;5088330;28;8855;-70
2022/08/12 05:37:05;;;;;;;;;23.50;22.00;;;;;25.77;32.83;99314.13;5047236;28;8862;-69
2022/08/12 05:39:34;;;;;;;;;19.75;18.75;;;;;25.92;32.22;99320.25;5068113;28;8858;-69
2022/08/12 05:42:03;;;;;;;;;20.25;19.50;;;;;25.74;31.96;99323.19;5049958;28;8939;-71
2022/08/12 05:44:32;;;;;;;;;24.50;23.50;;;;;26.09;31.76;99333.34;5068488;28;8904;-68
2022/08/12 05:47:00;;;;;;;;;20.00;19.50;;;;;26.11;31.53;99327.91;5036176;28;8875;-67
2022/08/12 05:49:29;;;;;;;;;23.75;22.50;;;;;26.12;31.99;99333.13;5088141;28;8844;-69
2022/08/12 05:51:58;;;;;;;;;25.75;23.00;;;;;26.14;31.68;99331.19;5067764;28;8862;-69
2022/08/12 05:54:26;;;;;;;;;31.50;28.75;;;;;26.44;31.57;99322.88;5068040;28;8846;-68
2022/08/12 05:57:17;;;;;;;;;24.75;23.25;;;;;26.54;31.83;99325.78;5068648;28;8974;-73
2022/08/12 05:59:46;;;;;;;;;21.75;20.75;;;;;26.96;31.46;99329.06;5068035;28;8887;-71
2022/08/12 06:02:15;;;;;;;;;25.50;25.25;;;;;27.25;31.37;99333.28;5068969;28;9657;-70
2022/08/12 06:04:44;;;;;;;;;25.00;24.50;;;;;27.54;30.84;99348.09;5098817;28;8846;-68
2022/08/12 06:07:13;;;;;;;;;21.25;21.25;;;;;27.84;30.58;99345.91;5067781;28;8870;-69
2022/08/12 06:10:01;;;;;;;;;22.50;21.75;;;;;28.16;30.26;99346.16;5066606;28;8939;-72
2022/08/12 06:12:31;;;;;;;;;19.25;19.25;;;;;28.36;29.13;99352.66;5067667;28;9005;-69
2022/08/12 06:15:01;;;;;;;;;17.80;17.40;;;;;28.67;29.10;99344.94;5048726;28;8884;-70
2022/08/12 06:17:30;;;;;;;;;19.00;18.75;;;;;28.88;28.56;99337.84;5066112;28;8892;-69
2022/08/12 06:19:59;;;;;;;;;19.50;19.50;;;;;29.03;28.13;99333.06;5066383;28;9757;-68
2022/08/12 06:22:49;;;;;;;;;24.00;20.75;;;;;29.20;28.00;99341.63;5076412;28;8932;-72
2022/08/12 06:25:22;;;;;;;;;18.75;18.25;;;;;29.25;28.21;99348.34;5087074;28;8852;-74
2022/08/12 06:27:52;;;;;;;;;22.00;21.00;;;;;29.33;28.34;99343.19;5078414;28;8989;-72
2022/08/12 06:30:36;;;;;;;;;19.60;16.80;;;;;29.48;28.08;99346.44;5099551;28;9032;-73
2022/08/12 06:33:19;;;;;;;;;20.25;18.50;;;;;29.60;27.70;99349.94;5066410;28;8861;-70
2022/08/12 06:35:53;;;;;;;;;18.25;18.00;;;;;29.73;27.43;99344.44;5068745;28;8995;-71
2022/08/12 06:38:29;;;;;;;;;19.75;19.75;;;;;29.86;27.21;99345.09;5070377;28;8823;-72
2022/08/12 06:43:50;;;;;;;;;18.00;18.00;;;;;30.19;27.10;99342.38;5072050;28;8866;-70
2022/08/12 06:46:37;;;;;;;;;17.50;16.50;;;;;30.34;26.95;99341.13;5070928;28;8888;-72
2022/08/12 06:49:11;;;;;;;;;21.25;21.00;;;;;30.23;27.34;99341.16;5104071;28;8937;-75
2022/08/12 06:51:40;;;;;;;;;19.75;19.75;;;;;29.62;27.92;99341.75;5054002;28;8961;-75
2022/08/12 06:54:21;;;;;;;;;20.50;20.00;;;;;29.78;27.55;99352.97;5070172;28;8928;-75
2022/08/12 06:57:00;;;;;;;;;21.50;18.25;;;;;28.85;28.81;99345.31;5069109;28;8854;-69
2022/08/12 06:59:37;;;;;;;;;22.75;22.00;;;;;29.18;28.77;99343.59;5070316;28;8885;-73
2022/08/12 07:02:07;;;;;;;;;22.75;21.50;;;;;29.71;28.34;99347.22;5068740;28;8874;-74
2022/08/12 07:04:37;;;;;;;;;24.50;22.25;;;;;30.01;27.87;99342.97;5067713;28;8869;-70
2022/08/12 07:07:09;;;;;;;;;14.50;14.50;;;;;30.32;27.82;99351.13;5078792;28;8852;-74
2022/08/12 07:09:41;;;;;;;;;16.75;15.75;;;;;30.50;27.52;99351.38;5084642;28;8994;-70
2022/08/12 07:12:29;;;;;;;;;19.00;18.25;;;;;30.50;26.82;99354.94;5086416;28;8944;-71
2022/08/12 07:15:00;;;;;;;;;20.00;18.75;;;;;30.25;27.40;99353.47;5087136;28;8867;-71
2022/08/12 07:17:34;;;;;;;;;23.00;21.00;;;;;30.29;27.44;99344.16;5086877;28;8840;-72
2022/08/12 07:20:08;;;;;;;;;19.25;18.25;;;;;30.58;27.21;99351.56;5098222;28;8908;-71
2022/08/12 07:22:38;;;;;;;;;19.25;16.00;;;;;30.81;26.71;99348.69;5065831;28;8956;-71
2022/08/12 07:27:55;;;;;;;;;19.80;18.00;;;;;31.29;26.01;99345.34;5078775;28;9612;-73
2022/08/12 07:30:25;;;;;;;;;19.75;19.75;;;;;31.21;25.59;99340.66;5084740;28;8877;-73
2022/08/12 07:32:54;;;;;;;;;20.00;16.50;;;;;31.41;25.49;99352.31;5083034;28;8868;-70
2022/08/12 07:35:29;;;;;;;;;20.00;18.25;;;;;30.51;26.70;99353.06;5064421;28;8824;-76
2022/08/12 07:37:59;;;;;;;;;17.40;14.00;;;;;29.83;27.33;99356.16;5079857;28;8871;-84
2022/08/12 07:40:29;;;;;;;;;26.50;25.75;;;;;30.52;27.17;99358.34;5070518;28;8973;-84
2022/08/12 07:42:58;;;;;;;;;20.75;17.75;;;;;30.89;26.29;99349.75;5090152;28;8871;-82
2022/08/12 07:45:28;;;;;;;;;17.75;17.75;;;;;31.00;25.90;99356.03;5073514;28;8955;-86
2022/08/12 07:47:57;;;;;;;;;17.00;17.00;;;;;30.98;26.18;99355.31;5089588;28;8852;-82
2022/08/12 07:50:26;;;;;;;;;18.25;17.00;;;;;31.22;25.91;99344.19;5092177;28;8842;-81
2022/08/12 07:52:55;;;;;;;;;17.00;16.00;;;;;31.38;25.60;99340.94;5096014;28;8979;-84
2022/08/12 07:55:24;;;;;;;;;17.80;16.60;;;;;31.11;25.81;99350.53;5093898;28;8859;-81
2022/08/12 07:57:58;;;;;;;;;16.20;15.40;;;;;31.48;25.45;99353.50;5083793;28;8828;-82
2022/08/12 08:00:30;;;;;;;;;16.80;15.20;;;;;31.54;25.22;99344.00;5087448;28;8972;-74
2022/08/12 08:02:59;;;;;;;;;14.20;14.20;;;;;31.82;25.10;99341.47;5072226;28;9657;-80
2022/08/12 08:05:32;;;;;;;;;14.40;13.60;;;;;32.02;24.73;99348.59;5056742;28;8859;-81
2022/08/12 08:08:03;;;;;;;;;15.40;15.20;;;;;32.10;24.19;99345.16;5091733;28;9004;-79
2022/08/12 08:10:32;;;;;;;;;11.40;11.40;;;;;32.02;24.07;99340.50;5024473;28;8892;-80
2022/08/12 08:13:03;;;;;;;;;16.80;15.00;;;;;32.31;24.33;99338.72;5090741;28;8951;-79
2022/08/12 08:15:34;;;;;;;;;16.00;16.00;;;;;32.38;23.82;99332.63;5073063;28;8845;-80
2022/08/12 08:18:24;;;;;;;;;15.40;13.40;;;;;32.59;23.62;99340.53;5047241;28;8852;-84
2022/08/12 08:20:56;;;;;;;;;15.00;14.60;;;;;32.63;23.70;99338.41;5036126;28;8927;-81
2022/08/12 08:24:13;;;;;;;;;12.80;12.00;;;;;32.82;23.67;99342.88;5090631;28;8900;-80
2022/08/12 08:26:25;;;;;;;;;14.80;13.80;;;;;33.00;23.65;99343.75;5108393;28;8812;-81
2022/08/12 08:28:54;;;;;;;;;15.80;15.80;;;;;33.19;23.48;99342.84;5037679;28;8852;-82
2022/08/12 08:31:24;;;;;;;;;14.40;14.20;;;;;33.09;23.16;99350.13;5077714;28;8883;-79
2022/08/12 08:33:54;;;;;;;;;16.50;15.00;;;;;33.14;23.68;99347.00;5073928;28;8859;-80
2022/08/12 08:36:38;;;;;;;;;15.00;14.00;;;;;33.28;23.33;99345.66;5047840;28;8870;-86
2022/08/12 08:39:07;;;;;;;;;13.60;13.40;;;;;33.45;23.18;99346.69;5076918;28;8872;-81
2022/08/12 08:44:40;;;;;;;;;16.75;15.75;;;;;33.57;23.83;99348.16;5010938;28;9712;-81
2022/08/12 08:47:12;;;;;;;;;17.75;17.75;;;;;33.73;23.92;99339.38;5002000;28;8985;-81
2022/08/12 08:49:42;;;;;;;;;20.00;18.25;;;;;33.39;23.87;99342.75;5022317;28;8983;-84
2022/08/12 08:52:11;;;;;;;;;18.50;17.50;;;;;32.37;25.37;99347.09;4969465;28;8856;-81
2022/08/12 08:55:00;;;;;;;;;16.25;15.25;;;;;31.48;27.09;99348.09;4967038;28;8848;-81
2022/08/12 08:57:28;;;;;;;;;19.50;18.25;;;;;32.03;26.38;99341.34;4966948;28;8844;-81
2022/08/12 09:00:14;;;;;;;;;14.80;14.60;;;;;32.14;25.57;99345.75;4967679;28;8892;-81
2022/08/12 09:02:45;;;;;;;;;7.60;7.60;;;;;32.48;24.39;99337.13;4951155;28;8860;-81
2022/08/12 09:05:26;;;;;;;;;9.80;9.80;;;;;32.67;23.56;99341.63;4967204;28;8889;-82
2022/08/12 09:08:11;;;;;;;;;11.40;10.00;;;;;32.73;23.34;99336.50;4967619;28;8856;-80
2022/08/12 09:10:50;;;;;;;;;10.60;10.20;;;;;32.91;22.55;99335.72;4967902;28;8879;-84
2022/08/12 09:13:31;;;;;;;;;8.80;7.80;;;;;33.05;22.24;99334.38;4968933;28;8867;-82
2022/08/12 09:16:20;;;;;;;;;8.40;8.00;;;;;33.19;21.59;99331.19;4969169;28;8883;-83
2022/08/12 09:18:52;;;;;;;;;12.60;12.60;;;;;33.39;22.61;99335.47;4981061;28;8976;-82
2022/08/12 09:21:22;;;;;;;;;12.60;11.60;;;;;33.63;22.48;99342.16;5007432;28;8909;-81
2022/08/12 09:23:56;;;;;;;;;11.00;10.80;;;;;33.48;22.09;99338.25;5053498;28;8936;-81
2022/08/12 09:26:36;;;;;;;;;11.20;10.20;;;;;33.56;21.88;99339.19;5033713;28;8988;-82
2022/08/12 09:29:14;;;;;;;;;14.00;13.00;;;;;33.47;21.64;99337.41;5045619;28;8855;-79
2022/08/12 09:31:43;;;;;;;;;10.00;8.60;;;;;33.67;22.55;99337.28;5065570;28;9611;-81
2022/08/12 09:34:35;;;;;;;;;13.60;13.60;;;;;33.69;22.00;99338.00;5049994;28;8949;-81
2022/08/12 09:37:11;;;;;;;;;13.40;12.60;;;;;33.83;21.86;99329.31;5064515;28;8881;-83
2022/08/12 09:39:52;;;;;;;;;12.80;12.60;;;;;33.59;21.70;99333.50;5005949;28;8866;-81
2022/08/12 09:45:47;;;;;;;;;13.80;13.40;;;;;33.97;20.36;99325.19;5051832;28;8877;-82
2022/08/12 09:48:36;;;;;;;;;10.00;9.60;;;;;34.04;21.15;99318.16;5073268;28;9677;-81
2022/08/12 09:51:09;;;;;;;;;14.50;13.25;;;;;33.32;21.14;99310.03;5064401;28;8869;-79
2022/08/12 09:53:50;;;;;;;;;8.00;7.40;;;;;33.39;21.73;99313.84;5066977;28;8858;-83
2022/08/12 09:56:39;;;;;;;;;12.20;12.20;;;;;33.68;21.53;99309.25;5065907;28;8997;-83
2022/08/12 09:59:28;;;;;;;;;11.00;11.00;;;;;33.58;21.73;99314.72;5046052;28;8959;-74
2022/08/12 10:02:17;;;;;;;;;12.75;11.25;;;;;33.62;20.62;99310.69;5077060;28;9694;-70
2022/08/12 10:05:08;;;;;;;;;12.00;10.80;;;;;33.66;19.92;99305.84;5086617;28;9649;-73
2022/08/12 10:07:42;;;;;;;;;9.60;9.60;;;;;33.83;20.46;99296.88;5087338;28;8866;-69
2022/08/12 10:10:11;;;;;;;;;13.00;12.80;;;;;33.94;20.76;99293.06;5087110;28;8851;-68
2022/08/12 10:16:06;;;;;;;;;13.20;12.60;;;;;33.41;20.02;99297.47;5044978;28;8865;-68
2022/08/12 10:18:49;;;;;;;;;12.00;12.00;;;;;33.08;20.18;99298.94;5053471;28;8848;-67
2022/08/12 10:21:21;;;;;;;;;12.40;12.40;;;;;32.59;19.63;99299.16;5044326;28;8880;-68
2022/08/12 10:23:54;;;;;;;;;4.50;3.50;;;;;32.78;20.04;99287.44;5047898;28;8967;-66
2022/08/12 10:32:22;;;;;;;;;15.25;13.75;;;;;33.57;19.40;99280.53;5064186;28;8894;-69
2022/08/12 10:35:14;;;;;;;;;14.50;14.00;;;;;33.11;20.27;99274.34;5049424;28;8861;-68
2022/08/12 10:37:44;;;;;;;;;16.50;16.50;;;;;33.21;20.31;99278.69;5048356;28;8874;-72
2022/08/12 10:43:39;;;;;;;;;16.25;15.00;;;;;33.54;19.74;99264.66;5044016;28;8869;-68
2022/08/12 10:43:43;;;;;;;;;11.20;11.20;;;;;33.75;20.24;99269.75;5045599;28;8867;-71
2022/08/12 10:46:24;;;;;;;;;11.00;11.00;;;;;33.89;18.49;99268.34;5051013;28;8834;-70
2022/08/12 10:48:57;;;;;;;;;12.25;12.25;;;;;34.18;18.76;99268.91;5026074;28;8850;-69
2022/08/12 10:51:48;;;;;;;;;13.75;12.75;;;;;34.30;19.28;99257.81;5066690;28;9477;-68
2022/08/12 10:54:33;;;;;;;;;13.75;12.75;;;;;34.17;19.08;99259.06;5081869;28;8852;-69
2022/08/12 10:57:05;;;;;;;;;11.00;11.00;;;;;34.36;18.84;99262.56;5076727;28;8881;-69
2022/08/12 10:59:34;;;;;;;;;12.25;11.50;;;;;34.65;18.31;99256.81;5070337;28;8868;-69
2022/08/12 11:02:24;;;;;;;;;9.20;9.20;;;;;34.71;18.14;99256.19;5085409;28;8867;-73
2022/08/12 11:05:12;;;;;;;;;13.60;13.60;;;;;34.96;18.05;99256.25;5086775;28;8847;-68
2022/08/12 11:08:01;;;;;;;;;12.75;10.75;;;;;34.96;18.01;99258.97;5086958;28;8864;-70
2022/08/12 11:10:50;;;;;;;;;12.75;12.75;;;;;34.27;18.88;99250.84;5086406;28;8844;-68
2022/08/12 11:13:20;;;;;;;;;13.25;13.00;;;;;34.50;18.51;99248.44;5084935;28;9664;-70
2022/08/12 11:16:08;;;;;;;;;14.75;14.75;;;;;34.81;18.74;99257.91;5085510;28;9002;-68
2022/08/12 11:18:49;;;;;;;;;12.25;12.00;;;;;35.09;18.51;99255.78;5089010;28;8890;-68
2022/08/12 11:21:23;;;;;;;;;11.00;11.00;;;;;35.08;18.10;99254.09;5103016;28;9601;-69
2022/08/12 11:24:11;;;;;;;;;14.50;14.50;;;;;35.00;18.00;99243.22;5069245;28;8843;-69
2022/08/12 11:26:59;;;;;;;;;11.40;11.40;;;;;33.86;18.84;99239.75;5070178;28;8868;-68
2022/08/12 11:29:30;;;;;;;;;10.75;10.25;;;;;33.55;19.33;99240.13;5080377;28;8870;-67
2022/08/12 11:32:19;;;;;;;;;12.00;11.80;;;;;34.02;19.45;99238.16;5076372;28;8833;-68
2022/08/12 11:34:47;;;;;;;;;10.00;10.00;;;;;33.66;19.32;99235.53;5090044;28;8851;-69
2022/08/12 11:37:22;;;;;;;;;14.75;14.50;;;;;33.60;19.65;99228.88;5090034;28;9620;-67
2022/08/12 11:39:54;;;;;;;;;14.50;14.50;;;;;33.83;19.27;99244.63;5089481;28;8889;-66
2022/08/12 11:42:35;;;;;;;;;14.00;13.25;;;;;33.85;18.69;99229.91;5089833;28;8836;-69
2022/08/12 11:45:14;;;;;;;;;13.75;13.75;;;;;33.85;19.03;99224.50;5089606;28;8832;-69
2022/08/12 11:47:44;;;;;;;;;12.75;11.50;;;;;34.05;19.00;99221.63;5085503;28;8932;-67
2022/08/12 11:50:13;;;;;;;;;11.25;11.00;;;;;34.68;18.66;99218.56;5089991;28;8855;-69
2022/08/12 11:52:47;;;;;;;;;9.80;9.80;;;;;35.20;17.95;99225.69;5105499;28;9542;-67
2022/08/12 11:55:25;;;;;;;;;12.75;11.75;;;;;35.55;17.51;99220.09;5055411;28;8851;-71
2022/08/12 11:57:57;;;;;;;;;11.60;11.20;;;;;35.87;17.46;99211.13;5089654;28;8863;-68
2022/08/12 12:00:47;;;;;;;;;11.80;11.80;;;;;36.23;17.41;99206.13;5087755;28;8886;-68
2022/08/12 12:03:35;;;;;;;;;10.00;10.00;;;;;36.48;16.72;99206.88;5087672;28;8858;-68
2022/08/12 12:06:14;;;;;;;;;8.00;7.50;;;;;36.59;16.64;99200.22;5068430;28;8856;-69
2022/08/12 12:08:45;;;;;;;;;11.25;10.75;;;;;36.82;16.83;99205.72;5070773;28;8846;-70
2022/08/12 12:11:21;;;;;;;;;10.75;10.75;;;;;36.60;16.54;99201.91;5068829;28;8927;-68
2022/08/12 12:13:50;;;;;;;;;10.75;10.75;;;;;36.66;16.15;99194.97;5081984;28;8851;-69
2022/08/12 12:16:39;;;;;;;;;11.00;10.00;;;;;36.19;16.42;99201.25;5089069;28;8859;-71
2022/08/12 12:19:17;;;;;;;;;13.50;12.75;;;;;35.50;17.51;99201.63;5086764;28;8863;-71
2022/08/12 12:21:46;;;;;;;;;12.25;12.25;;;;;34.85;17.86;99203.22;5076564;28;8948;-71
2022/08/12 12:24:17;;;;;;;;;11.50;11.50;;;;;35.23;17.76;99194.66;5076095;28;8920;-69
2022/08/12 12:26:50;;;;;;;;;15.00;15.00;;;;;35.88;16.71;99191.09;5088012;28;8898;-71
2022/08/12 12:29:29;;;;;;;;;14.75;14.75;;;;;35.98;16.91;99182.78;5090216;28;8867;-71
2022/08/12 12:32:19;;;;;;;;;10.00;9.75;;;;;35.17;17.25;99190.72;5075669;28;8851;-73
2022/08/12 12:34:58;;;;;;;;;12.00;11.25;;;;;34.48;17.96;99182.78;5090392;28;8898;-76
2022/08/12 12:37:51;;;;;;;;;11.00;10.75;;;;;35.65;17.55;99175.53;5088269;28;8856;-72
2022/08/12 12:40:40;;;;;;;;;11.00;11.00;;;;;36.81;16.62;99171.44;5089941;28;8887;-74
2022/08/12 12:43:12;;;;;;;;;14.50;11.25;;;;;37.77;15.32;99174.63;5090944;28;8876;-87
2022/08/12 12:45:43;;;;;;;;;10.75;10.75;;;;;38.12;15.00;99168.66;5090377;28;8936;-84
2022/08/12 12:48:17;;;;;;;;;13.00;13.00;;;;;37.41;15.41;99166.25;5090382;28;8852;-89
2022/08/12 12:51:14;;;;;;;;;16.00;15.50;;;;;37.35;15.66;99164.25;5076351;28;8956;-89
2022/08/12 12:53:37;;;;;;;;;11.00;10.00;;;;;37.35;15.62;99159.66;5077813;28;9626;-85
2022/08/12 12:56:26;;;;;;;;;12.50;11.75;;;;;38.33;14.85;99166.00;5089983;28;9657;-87
2022/08/12 12:59:04;;;;;;;;;8.75;8.25;;;;;39.50;14.37;99162.25;5086155;28;8843;-85
2022/08/12 13:01:36;;;;;;;;;10.50;10.50;;;;;40.51;13.18;99155.53;5081883;28;8969;-83
2022/08/12 13:04:12;;;;;;;;;11.75;11.75;;;;;41.22;12.91;99157.84;5021835;28;8866;-84
2022/08/12 13:06:42;;;;;;;;;12.25;12.25;;;;;40.77;12.85;99156.72;5084917;28;9052;-86
2022/08/12 13:09:11;;;;;;;;;11.25;9.75;;;;;40.38;13.26;99142.69;5113919;28;8923;-86
2022/08/12 13:11:42;;;;;;;;;9.75;9.75;;;;;40.23;13.51;99150.13;5043494;28;8874;-86
2022/08/12 13:14:14;;;;;;;;;12.00;12.00;;;;;40.28;13.17;99148.47;5077903;28;8865;-84
2022/08/12 13:16:59;;;;;;;;;9.00;9.00;;;;;40.01;13.31;99139.31;5066617;28;8848;-87
2022/08/12 13:19:34;;;;;;;;;12.25;11.25;;;;;39.54;13.92;99143.59;5070969;28;8881;-88
2022/08/12 13:22:20;;;;;;;;;11.75;11.75;;;;;39.58;13.46;99142.16;5074197;28;8968;-87
2022/08/12 13:24:53;;;;;;;;;10.75;10.75;;;;;39.56;13.88;99145.09;5070174;28;8877;-86
2022/08/12 13:27:28;;;;;;;;;13.00;11.25;;;;;39.03;13.68;99139.16;5068780;28;8838;-84
2022/08/12 13:30:06;;;;;;;;;12.75;10.25;;;;;38.88;14.59;99135.63;5061770;28;8875;-85
2022/08/12 13:32:40;;;;;;;;;12.25;10.75;;;;;38.96;14.23;99133.63;5075014;28;8887;-85
2022/08/12 13:35:15;;;;;;;;;10.50;10.50;;;;;38.58;14.98;99133.00;5072221;28;9652;-86
2022/08/12 13:38:02;;;;;;;;;14.00;11.50;;;;;38.52;14.80;99136.47;5088873;28;9439;-84
2022/08/12 13:40:32;;;;;;;;;10.75;10.00;;;;;37.65;15.46;99133.38;5076987;28;8859;-83
2022/08/12 13:43:05;;;;;;;;;14.75;14.75;;;;;37.43;15.40;99129.69;5082651;28;8866;-86
2022/08/12 13:45:35;;;;;;;;;5.25;5.25;;;;;37.34;15.56;99125.34;5081654;28;8844;-85
2022/08/12 13:48:07;;;;;;;;;11.00;11.00;;;;;37.15;15.77;99132.13;5088067;28;8882;-84
2022/08/12 13:50:39;;;;;;;;;11.25;11.25;;;;;36.87;15.83;99129.94;5093160;28;8924;-84
2022/08/12 13:53:10;;;;;;;;;13.25;12.50;;;;;36.45;16.25;99128.47;5083556;28;8839;-86